sensor_id;sensor_type;location;lat;lon;timestamp;pressure;altitude;pressure_sealevel;temperature;humidity
6567;BME280;3317;43.994;22.878;2022-12-18T00:02:08;102076.59;;;5.99;69.90
6567;BME280;3317;43.994;22.878;2022-12-18T00:04:38;102065.22;;;5.94;69.85
6567;BME280;3317;43.994;22.878;2022-12-18T00:07:06;102066.19;;;5.93;69.53
6567;BME280;3317;43.994;22.878;2022-12-18T00:09:33;102020.44;;;5.62;69.59
6567;BME280;3317;43.994;22.878;2022-12-18T00:12:00;102060.88;;;5.77;69.49
6567;BME280;3317;43.994;22.878;2022-12-18T00:14:26;102075.66;;;5.84;69.20
6567;BME280;3317;43.994;22.878;2022-12-18T00:16:53;102081.16;;;5.83;69.35
6567;BME280;3317;43.994;22.878;2022-12-18T00:19:20;102091.81;;;5.84;69.79
6567;BME280;3317;43.994;22.878;2022-12-18T00:21:47;102096.41;;;5.82;69.67
6567;BME280;3317;43.994;22.878;2022-12-18T00:24:16;102103.53;;;5.83;69.76
6567;BME280;3317;43.994;22.878;2022-12-18T00:26:42;102106.16;;;5.85;69.61
6567;BME280;3317;43.994;22.878;2022-12-18T00:29:11;102112.66;;;5.81;69.54
6567;BME280;3317;43.994;22.878;2022-12-18T00:31:40;102117.88;;;5.84;69.65
6567;BME280;3317;43.994;22.878;2022-12-18T00:34:09;102122.44;;;5.82;70.09
6567;BME280;3317;43.994;22.878;2022-12-18T00:36:36;102125.84;;;5.85;69.93
6567;BME280;3317;43.994;22.878;2022-12-18T00:39:04;102114.03;;;5.72;70.06
6567;BME280;3317;43.994;22.878;2022-12-18T00:41:33;102141.47;;;5.78;69.90
6567;BME280;3317;43.994;22.878;2022-12-18T00:44:18;102144.16;;;5.78;69.96
6567;BME280;3317;43.994;22.878;2022-12-18T00:46:46;102141.47;;;5.78;70.13
6567;BME280;3317;43.994;22.878;2022-12-18T00:49:14;102141.84;;;5.72;70.57
6567;BME280;3317;43.994;22.878;2022-12-18T00:51:42;102140.09;;;5.71;70.29
6567;BME280;3317;43.994;22.878;2022-12-18T00:54:09;102141.97;;;5.69;70.20
6567;BME280;3317;43.994;22.878;2022-12-18T00:56:38;102146.50;;;5.69;70.71
6567;BME280;3317;43.994;22.878;2022-12-18T00:59:06;102154.66;;;5.67;70.51
6567;BME280;3317;43.994;22.878;2022-12-18T01:01:33;102162.06;;;5.63;70.55
6567;BME280;3317;43.994;22.878;2022-12-18T01:04:00;102162.06;;;5.63;70.96
6567;BME280;3317;43.994;22.878;2022-12-18T01:06:28;102171.84;;;5.64;71.04
6567;BME280;3317;43.994;22.878;2022-12-18T01:08:55;102163.25;;;5.58;71.21
6567;BME280;3317;43.994;22.878;2022-12-18T01:11:22;102154.25;;;5.59;71.57
6567;BME280;3317;43.994;22.878;2022-12-18T01:13:51;102154.25;;;5.59;71.49
6567;BME280;3317;43.994;22.878;2022-12-18T01:16:18;102147.78;;;5.61;71.37
6567;BME280;3317;43.994;22.878;2022-12-18T01:18:45;102146.16;;;5.59;71.43
6567;BME280;3317;43.994;22.878;2022-12-18T01:21:16;102161.44;;;5.58;71.52
6567;BME280;3317;43.994;22.878;2022-12-18T01:23:43;102162.38;;;5.57;71.37
6567;BME280;3317;43.994;22.878;2022-12-18T01:26:14;102161.44;;;5.58;71.39
6567;BME280;3317;43.994;22.878;2022-12-18T01:28:41;102163.34;;;5.56;71.48
6567;BME280;3317;43.994;22.878;2022-12-18T01:31:15;102158.03;;;5.55;71.74
6567;BME280;3317;43.994;22.878;2022-12-18T01:33:43;102164.38;;;5.54;71.79
6567;BME280;3317;43.994;22.878;2022-12-18T01:36:15;102160.19;;;5.48;71.42
6567;BME280;3317;43.994;22.878;2022-12-18T01:38:43;102166.28;;;5.52;71.51
6567;BME280;3317;43.994;22.878;2022-12-18T01:41:10;102165.44;;;5.51;71.62
6567;BME280;3317;43.994;22.878;2022-12-18T01:43:48;102165.75;;;5.45;71.41
6567;BME280;3317;43.994;22.878;2022-12-18T01:46:18;102172.97;;;5.44;71.49
6567;BME280;3317;43.994;22.878;2022-12-18T01:48:48;102181.13;;;5.43;71.34
6567;BME280;3317;43.994;22.878;2022-12-18T01:51:15;102184.81;;;5.40;71.00
6567;BME280;3317;43.994;22.878;2022-12-18T01:53:44;102188.47;;;5.39;70.87
6567;BME280;3317;43.994;22.878;2022-12-18T01:56:13;102191.25;;;5.38;70.90
6567;BME280;3317;43.994;22.878;2022-12-18T01:58:46;102184.03;;;5.38;70.57
6567;BME280;3317;43.994;22.878;2022-12-18T02:01:17;102191.34;;;5.36;70.09
6567;BME280;3317;43.994;22.878;2022-12-18T02:03:44;102174.75;;;5.28;70.31
6567;BME280;3317;43.994;22.878;2022-12-18T02:06:15;102192.28;;;5.35;70.26
6567;BME280;3317;43.994;22.878;2022-12-18T02:08:54;102200.34;;;5.35;69.64
6567;BME280;3317;43.994;22.878;2022-12-18T02:11:36;102202.88;;;5.38;69.85
6567;BME280;3317;43.994;22.878;2022-12-18T02:14:16;102202.88;;;5.38;69.85
6567;BME280;3317;43.994;22.878;2022-12-18T02:16:51;102209.03;;;5.40;69.97
6567;BME280;3317;43.994;22.878;2022-12-18T02:19:47;102203.66;;;5.40;70.03
6567;BME280;3317;43.994;22.878;2022-12-18T02:22:26;102205.31;;;5.43;69.55
6567;BME280;3317;43.994;22.878;2022-12-18T02:25:06;102204.34;;;5.44;69.58
6567;BME280;3317;43.994;22.878;2022-12-18T02:27:42;102210.75;;;5.41;69.65
6567;BME280;3317;43.994;22.878;2022-12-18T02:30:12;102206.16;;;5.43;69.73
6567;BME280;3317;43.994;22.878;2022-12-18T02:32:43;102217.03;;;5.42;69.91
6567;BME280;3317;43.994;22.878;2022-12-18T02:35:14;102212.44;;;5.44;69.66
6567;BME280;3317;43.994;22.878;2022-12-18T02:37:43;102218.81;;;5.41;69.67
6567;BME280;3317;43.994;22.878;2022-12-18T02:40:12;102196.59;;;5.21;69.67
6567;BME280;3317;43.994;22.878;2022-12-18T02:42:41;102229.59;;;5.41;69.67
6567;BME280;3317;43.994;22.878;2022-12-18T02:45:09;102231.50;;;5.39;69.20
6567;BME280;3317;43.994;22.878;2022-12-18T02:47:38;102225.09;;;5.42;69.22
6567;BME280;3317;43.994;22.878;2022-12-18T02:50:13;102240.50;;;5.38;69.63
6567;BME280;3317;43.994;22.878;2022-12-18T02:52:53;102233.22;;;5.40;69.50
6567;BME280;3317;43.994;22.878;2022-12-18T02:55:28;102223.84;;;5.31;69.16
6567;BME280;3317;43.994;22.878;2022-12-18T02:58:04;102233.41;;;5.37;69.36
6567;BME280;3317;43.994;22.878;2022-12-18T03:00:37;102220.53;;;5.26;69.02
6567;BME280;3317;43.994;22.878;2022-12-18T03:03:09;102238.94;;;5.34;68.99
6567;BME280;3317;43.994;22.878;2022-12-18T03:05:40;102245.28;;;5.33;69.21
6567;BME280;3317;43.994;22.878;2022-12-18T03:08:12;102248.09;;;5.30;69.13
6567;BME280;3317;43.994;22.878;2022-12-18T03:10:45;102254.38;;;5.30;69.06
6567;BME280;3317;43.994;22.878;2022-12-18T03:13:20;102254.63;;;5.26;69.45
6567;BME280;3317;43.994;22.878;2022-12-18T03:15:52;102265.38;;;5.26;69.41
6567;BME280;3317;43.994;22.878;2022-12-18T03:18:23;102271.88;;;5.21;69.36
6567;BME280;3317;43.994;22.878;2022-12-18T03:20:52;102273.91;;;5.16;69.25
6567;BME280;3317;43.994;22.878;2022-12-18T03:23:24;102260.31;;;5.02;69.33
6567;BME280;3317;43.994;22.878;2022-12-18T03:25:55;102279.38;;;5.15;69.29
6567;BME280;3317;43.994;22.878;2022-12-18T03:28:27;102282.06;;;5.15;69.35
6567;BME280;3317;43.994;22.878;2022-12-18T03:30:57;102274.97;;;5.14;69.42
6567;BME280;3317;43.994;22.878;2022-12-18T03:33:27;102271.31;;;5.15;69.48
6567;BME280;3317;43.994;22.878;2022-12-18T03:35:57;102271.38;;;5.13;69.78
6567;BME280;3317;43.994;22.878;2022-12-18T03:38:24;102277.72;;;5.12;69.52
6567;BME280;3317;43.994;22.878;2022-12-18T03:40:56;102285.00;;;5.10;69.88
6567;BME280;3317;43.994;22.878;2022-12-18T03:43:35;102278.06;;;5.06;69.47
6567;BME280;3317;43.994;22.878;2022-12-18T03:46:09;102294.06;;;5.07;69.47
6567;BME280;3317;43.994;22.878;2022-12-18T03:48:42;102290.84;;;5.01;69.41
6567;BME280;3317;43.994;22.878;2022-12-18T03:51:14;102306.78;;;5.04;68.90
6567;BME280;3317;43.994;22.878;2022-12-18T03:53:48;102308.78;;;5.00;69.06
6567;BME280;3317;43.994;22.878;2022-12-18T03:56:18;102319.53;;;5.00;68.69
6567;BME280;3317;43.994;22.878;2022-12-18T03:58:50;102314.41;;;4.96;68.92
6567;BME280;3317;43.994;22.878;2022-12-18T04:01:17;102326.00;;;4.96;68.51
6567;BME280;3317;43.994;22.878;2022-12-18T04:03:48;102320.72;;;4.95;68.45
6567;BME280;3317;43.994;22.878;2022-12-18T04:06:16;102331.53;;;4.93;68.45
6567;BME280;3317;43.994;22.878;2022-12-18T04:08:44;102319.94;;;4.92;68.35
6567;BME280;3317;43.994;22.878;2022-12-18T04:11:11;102318.31;;;4.88;68.28
6567;BME280;3317;43.994;22.878;2022-12-18T04:13:39;102328.69;;;4.96;68.42
6567;BME280;3317;43.994;22.878;2022-12-18T04:16:10;102326.09;;;4.95;68.20
6567;BME280;3317;43.994;22.878;2022-12-18T04:18:37;102315.47;;;4.91;68.40
6567;BME280;3317;43.994;22.878;2022-12-18T04:21:04;102316.44;;;4.90;68.00
6567;BME280;3317;43.994;22.878;2022-12-18T04:23:31;102318.16;;;4.91;68.06
6567;BME280;3317;43.994;22.878;2022-12-18T04:25:58;102312.97;;;4.88;67.99
6567;BME280;3317;43.994;22.878;2022-12-18T04:28:25;102308.75;;;4.83;67.81
6567;BME280;3317;43.994;22.878;2022-12-18T04:30:52;102318.31;;;4.88;68.19
6567;BME280;3317;43.994;22.878;2022-12-18T04:33:20;102327.28;;;4.89;68.13
6567;BME280;3317;43.994;22.878;2022-12-18T04:35:47;102328.22;;;4.88;67.83
6567;BME280;3317;43.994;22.878;2022-12-18T04:38:14;102329.47;;;4.81;67.66
6567;BME280;3317;43.994;22.878;2022-12-18T04:40:41;102327.00;;;4.76;67.97
6567;BME280;3317;43.994;22.878;2022-12-18T04:43:08;102329.91;;;4.71;67.66
6567;BME280;3317;43.994;22.878;2022-12-18T04:45:35;102327.63;;;4.63;67.98
6567;BME280;3317;43.994;22.878;2022-12-18T04:48:02;102332.84;;;4.67;67.69
6567;BME280;3317;43.994;22.878;2022-12-18T04:50:31;102339.31;;;4.62;67.95
6567;BME280;3317;43.994;22.878;2022-12-18T04:52:58;102343.25;;;4.55;68.29
6567;BME280;3317;43.994;22.878;2022-12-18T04:55:25;102350.38;;;4.56;67.92
6567;BME280;3317;43.994;22.878;2022-12-18T04:57:52;102365.75;;;4.53;68.38
6567;BME280;3317;43.994;22.878;2022-12-18T05:00:19;102369.28;;;4.53;68.17
6567;BME280;3317;43.994;22.878;2022-12-18T05:02:46;102338.91;;;4.33;68.25
6567;BME280;3317;43.994;22.878;2022-12-18T05:05:13;102370.38;;;4.49;68.35
6567;BME280;3317;43.994;22.878;2022-12-18T05:07:42;102377.81;;;4.44;68.79
6567;BME280;3317;43.994;22.878;2022-12-18T05:10:09;102374.06;;;4.46;68.78
6567;BME280;3317;43.994;22.878;2022-12-18T05:12:36;102344.44;;;4.30;68.45
6567;BME280;3317;43.994;22.878;2022-12-18T05:15:23;102376.84;;;4.45;68.56
6567;BME280;3317;43.994;22.878;2022-12-18T05:17:50;102375.97;;;4.44;68.67
6567;BME280;3317;43.994;22.878;2022-12-18T05:20:17;102372.72;;;4.37;68.90
6567;BME280;3317;43.994;22.878;2022-12-18T05:22:46;102388.81;;;4.37;68.90
6567;BME280;3317;43.994;22.878;2022-12-18T05:25:13;102390.66;;;4.37;68.82
6567;BME280;3317;43.994;22.878;2022-12-18T05:27:40;102387.97;;;4.37;69.02
6567;BME280;3317;43.994;22.878;2022-12-18T05:30:08;102401.28;;;4.39;68.64
6567;BME280;3317;43.994;22.878;2022-12-18T05:32:35;102393.19;;;4.40;69.10
6567;BME280;3317;43.994;22.878;2022-12-18T05:35:03;102403.97;;;4.39;68.94
6567;BME280;3317;43.994;22.878;2022-12-18T05:37:30;102398.50;;;4.42;69.00
6567;BME280;3317;43.994;22.878;2022-12-18T05:39:58;102397.38;;;4.46;69.35
6567;BME280;3317;43.994;22.878;2022-12-18T05:42:25;102411.03;;;4.41;69.33
6567;BME280;3317;43.994;22.878;2022-12-18T05:44:52;102409.13;;;4.43;69.08
6567;BME280;3317;43.994;22.878;2022-12-18T05:47:19;102411.91;;;4.42;69.32
6567;BME280;3317;43.994;22.878;2022-12-18T05:49:46;102407.41;;;4.42;69.50
6567;BME280;3317;43.994;22.878;2022-12-18T05:52:13;102419.81;;;4.45;69.46
6567;BME280;3317;43.994;22.878;2022-12-18T05:54:40;102420.44;;;4.50;69.48
6567;BME280;3317;43.994;22.878;2022-12-18T05:57:08;102423.88;;;4.54;69.47
6567;BME280;3317;43.994;22.878;2022-12-18T05:59:35;102428.44;;;4.51;69.54
6567;BME280;3317;43.994;22.878;2022-12-18T06:02:02;102418.56;;;4.52;69.62
6567;BME280;3317;43.994;22.878;2022-12-18T06:04:29;102429.31;;;4.52;69.63
6567;BME280;3317;43.994;22.878;2022-12-18T06:06:59;102428.31;;;4.55;69.37
6567;BME280;3317;43.994;22.878;2022-12-18T06:09:33;102421.91;;;4.57;69.37
6567;BME280;3317;43.994;22.878;2022-12-18T06:12:00;102425.56;;;4.56;69.40
6567;BME280;3317;43.994;22.878;2022-12-18T06:14:28;102422.94;;;4.55;69.02
6567;BME280;3317;43.994;22.878;2022-12-18T06:16:55;102419.22;;;4.57;68.80
6567;BME280;3317;43.994;22.878;2022-12-18T06:19:22;102433.59;;;4.56;68.65
6567;BME280;3317;43.994;22.878;2022-12-18T06:21:49;102443.41;;;4.57;68.79
6567;BME280;3317;43.994;22.878;2022-12-18T06:24:16;102446.16;;;4.56;69.11
6567;BME280;3317;43.994;22.878;2022-12-18T06:26:43;102455.72;;;4.61;69.24
6567;BME280;3317;43.994;22.878;2022-12-18T06:29:10;102460.09;;;4.64;69.28
6567;BME280;3317;43.994;22.878;2022-12-18T06:31:39;102469.91;;;4.65;69.21
6567;BME280;3317;43.994;22.878;2022-12-18T06:34:06;102473.16;;;4.72;69.09
6567;BME280;3317;43.994;22.878;2022-12-18T06:36:33;102476.00;;;4.69;68.86
6567;BME280;3317;43.994;22.878;2022-12-18T06:38:59;102476.78;;;4.71;68.88
6567;BME280;3317;43.994;22.878;2022-12-18T06:41:26;102405.38;;;4.28;68.77
6567;BME280;3317;43.994;22.878;2022-12-18T06:43:53;102476.56;;;4.75;69.16
6567;BME280;3317;43.994;22.878;2022-12-18T06:46:20;102488.13;;;4.77;68.99
6567;BME280;3317;43.994;22.878;2022-12-18T06:48:49;102487.38;;;4.74;69.24
6567;BME280;3317;43.994;22.878;2022-12-18T06:51:18;102499.72;;;4.78;69.07
6567;BME280;3317;43.994;22.878;2022-12-18T06:53:46;102503.28;;;4.78;69.22
6567;BME280;3317;43.994;22.878;2022-12-18T06:56:13;102505.34;;;4.73;69.10
6567;BME280;3317;43.994;22.878;2022-12-18T06:58:40;102517.47;;;4.82;69.28
6567;BME280;3317;43.994;22.878;2022-12-18T07:01:09;102507.88;;;4.76;69.13
6567;BME280;3317;43.994;22.878;2022-12-18T07:03:37;102527.91;;;4.88;68.81
6567;BME280;3317;43.994;22.878;2022-12-18T07:06:06;102530.59;;;4.88;68.71
6567;BME280;3317;43.994;22.878;2022-12-18T07:08:33;102534.72;;;4.96;68.79
6567;BME280;3317;43.994;22.878;2022-12-18T07:11:03;102532.09;;;4.94;68.29
6567;BME280;3317;43.994;22.878;2022-12-18T07:13:30;102534.44;;;5.02;68.15
6567;BME280;3317;43.994;22.878;2022-12-18T07:16:04;102542.28;;;5.06;67.87
6567;BME280;3317;43.994;22.878;2022-12-18T07:18:30;102539.53;;;5.08;67.84
6567;BME280;3317;43.994;22.878;2022-12-18T07:20:57;102535.75;;;5.12;67.51
6567;BME280;3317;43.994;22.878;2022-12-18T07:23:26;102541.06;;;5.14;67.33
6567;BME280;3317;43.994;22.878;2022-12-18T07:25:52;102539.94;;;5.18;66.85
6567;BME280;3317;43.994;22.878;2022-12-18T07:28:19;102549.75;;;5.19;66.44
6567;BME280;3317;43.994;22.878;2022-12-18T07:30:46;102550.38;;;5.24;66.50
6567;BME280;3317;43.994;22.878;2022-12-18T07:33:13;102548.38;;;5.29;66.46
6567;BME280;3317;43.994;22.878;2022-12-18T07:35:40;102549.88;;;5.35;66.23
6567;BME280;3317;43.994;22.878;2022-12-18T07:38:07;102549.78;;;5.36;65.61
6567;BME280;3317;43.994;22.878;2022-12-18T07:40:36;102552.47;;;5.36;65.15
6567;BME280;3317;43.994;22.878;2022-12-18T07:43:03;102555.03;;;5.40;64.67
6567;BME280;3317;43.994;22.878;2022-12-18T07:45:29;102555.03;;;5.40;64.14
6567;BME280;3317;43.994;22.878;2022-12-18T07:47:56;102561.84;;;5.47;63.87
6567;BME280;3317;43.994;22.878;2022-12-18T07:50:23;102565.91;;;5.56;63.93
6567;BME280;3317;43.994;22.878;2022-12-18T07:52:50;102568.06;;;5.67;63.70
6567;BME280;3317;43.994;22.878;2022-12-18T07:55:17;102558.16;;;5.67;62.81
6567;BME280;3317;43.994;22.878;2022-12-18T07:57:45;102571.31;;;5.73;62.86
6567;BME280;3317;43.994;22.878;2022-12-18T08:00:13;102572.97;;;5.76;62.13
6567;BME280;3317;43.994;22.878;2022-12-18T08:02:41;102572.84;;;5.79;60.53
6567;BME280;3317;43.994;22.878;2022-12-18T08:05:08;102581.53;;;5.84;60.66
6567;BME280;3317;43.994;22.878;2022-12-18T08:07:35;102582.03;;;5.92;61.33
6567;BME280;3317;43.994;22.878;2022-12-18T08:10:03;102579.34;;;5.92;60.72
6567;BME280;3317;43.994;22.878;2022-12-18T08:12:30;102582.03;;;5.92;60.05
6567;BME280;3317;43.994;22.878;2022-12-18T08:14:58;102593.25;;;6.01;59.50
6567;BME280;3317;43.994;22.878;2022-12-18T08:17:25;102590.66;;;5.99;59.06
6567;BME280;3317;43.994;22.878;2022-12-18T08:19:52;102597.06;;;5.97;58.66
6567;BME280;3317;43.994;22.878;2022-12-18T08:22:19;102595.16;;;5.99;58.53
6567;BME280;3317;43.994;22.878;2022-12-18T08:24:45;102603.03;;;6.03;58.97
6567;BME280;3317;43.994;22.878;2022-12-18T08:27:12;102599.41;;;6.04;58.95
6567;BME280;3317;43.994;22.878;2022-12-18T08:29:39;102603.38;;;6.15;58.94
6567;BME280;3317;43.994;22.878;2022-12-18T08:32:08;102608.91;;;6.12;58.88
6567;BME280;3317;43.994;22.878;2022-12-18T08:34:35;102605.03;;;6.17;59.13
6567;BME280;3317;43.994;22.878;2022-12-18T08:37:02;102612.06;;;6.20;57.96
6567;BME280;3317;43.994;22.878;2022-12-18T08:39:28;102595.84;;;6.22;58.07
6567;BME280;3317;43.994;22.878;2022-12-18T08:41:55;102610.09;;;6.24;57.48
6567;BME280;3317;43.994;22.878;2022-12-18T08:44:40;102599.09;;;6.28;57.25
6567;BME280;3317;43.994;22.878;2022-12-18T08:47:08;102606.38;;;6.26;57.02
6567;BME280;3317;43.994;22.878;2022-12-18T08:49:35;102597.28;;;6.29;56.31
6567;BME280;3317;43.994;22.878;2022-12-18T08:52:03;102607.34;;;6.25;55.42
6567;BME280;3317;43.994;22.878;2022-12-18T08:54:30;102596.56;;;6.25;55.77
6567;BME280;3317;43.994;22.878;2022-12-18T08:56:57;102598.91;;;6.31;55.73
6567;BME280;3317;43.994;22.878;2022-12-18T08:59:23;102602.31;;;6.35;56.17
6567;BME280;3317;43.994;22.878;2022-12-18T09:01:58;102589.88;;;6.32;55.28
6567;BME280;3317;43.994;22.878;2022-12-18T09:04:26;102596.94;;;6.35;56.08
6567;BME280;3317;43.994;22.878;2022-12-18T09:06:53;102593.06;;;6.41;56.31
6567;BME280;3317;43.994;22.878;2022-12-18T09:09:22;102595.59;;;6.44;56.52
6567;BME280;3317;43.994;22.878;2022-12-18T09:11:50;102583.72;;;6.48;56.85
6567;BME280;3317;43.994;22.878;2022-12-18T09:14:17;102595.81;;;6.57;57.14
6567;BME280;3317;43.994;22.878;2022-12-18T09:16:44;102581.88;;;6.48;55.95
6567;BME280;3317;43.994;22.878;2022-12-18T09:19:11;102566.66;;;6.47;55.67
6567;BME280;3317;43.994;22.878;2022-12-18T09:21:39;102576.41;;;6.50;55.08
6567;BME280;3317;43.994;22.878;2022-12-18T09:24:11;102579.78;;;6.54;54.37
6567;BME280;3317;43.994;22.878;2022-12-18T09:26:38;102582.59;;;6.52;54.10
6567;BME280;3317;43.994;22.878;2022-12-18T09:29:05;102584.63;;;6.47;54.35
6567;BME280;3317;43.994;22.878;2022-12-18T09:31:34;102523.06;;;6.23;54.62
6567;BME280;3317;43.994;22.878;2022-12-18T09:34:01;102588.75;;;6.54;55.25
6567;BME280;3317;43.994;22.878;2022-12-18T09:36:35;102587.81;;;6.55;55.05
6567;BME280;3317;43.994;22.878;2022-12-18T09:39:04;102585.28;;;6.52;54.70
6567;BME280;3317;43.994;22.878;2022-12-18T09:41:42;102586.31;;;6.50;54.40
6567;BME280;3317;43.994;22.878;2022-12-18T09:44:16;102589.72;;;6.53;54.75
6567;BME280;3317;43.994;22.878;2022-12-18T09:46:49;102575.28;;;6.54;55.18
6567;BME280;3317;43.994;22.878;2022-12-18T09:49:23;102571.81;;;6.52;54.75
6567;BME280;3317;43.994;22.878;2022-12-18T09:51:55;102589.31;;;6.61;54.90
6567;BME280;3317;43.994;22.878;2022-12-18T09:54:28;102580.03;;;6.67;54.15
6567;BME280;3317;43.994;22.878;2022-12-18T09:56:56;102579.13;;;6.66;54.13
6567;BME280;3317;43.994;22.878;2022-12-18T09:59:25;102581.81;;;6.66;54.24
6567;BME280;3317;43.994;22.878;2022-12-18T10:01:53;102564.09;;;6.62;54.49
6567;BME280;3317;43.994;22.878;2022-12-18T10:04:20;102572.41;;;6.75;54.76
6567;BME280;3317;43.994;22.878;2022-12-18T10:06:53;102578.47;;;6.79;54.22
6567;BME280;3317;43.994;22.878;2022-12-18T10:09:28;102580.22;;;6.80;53.63
6567;BME280;3317;43.994;22.878;2022-12-18T10:12:07;102580.06;;;6.83;52.66
6567;BME280;3317;43.994;22.878;2022-12-18T10:14:41;102582.59;;;6.86;53.52
6567;BME280;3317;43.994;22.878;2022-12-18T10:17:17;102567.78;;;6.77;53.09
6567;BME280;3317;43.994;22.878;2022-12-18T10:19:52;102583.13;;;6.93;53.49
6567;BME280;3317;43.994;22.878;2022-12-18T10:22:30;102587.31;;;6.98;53.33
6567;BME280;3317;43.994;22.878;2022-12-18T10:25:09;102599.41;;;7.07;52.57
6567;BME280;3317;43.994;22.878;2022-12-18T10:27:40;102595.41;;;7.14;52.09
6567;BME280;3317;43.994;22.878;2022-12-18T10:30:13;102601.50;;;7.18;51.99
6567;BME280;3317;43.994;22.878;2022-12-18T10:32:40;102581.22;;;7.11;50.81
6567;BME280;3317;43.994;22.878;2022-12-18T10:35:15;102591.22;;;7.25;51.81
6567;BME280;3317;43.994;22.878;2022-12-18T10:38:00;102600.91;;;7.29;51.42
6567;BME280;3317;43.994;22.878;2022-12-18T10:40:28;102599.16;;;7.28;50.27
6567;BME280;3317;43.994;22.878;2022-12-18T10:43:09;102589.94;;;7.32;50.94
6567;BME280;3317;43.994;22.878;2022-12-18T10:45:37;102601.69;;;7.31;50.26
6567;BME280;3317;43.994;22.878;2022-12-18T10:48:18;102608.63;;;7.35;50.99
6567;BME280;3317;43.994;22.878;2022-12-18T10:50:48;102611.97;;;7.40;51.49
6567;BME280;3317;43.994;22.878;2022-12-18T10:53:20;102611.72;;;7.45;51.25
6567;BME280;3317;43.994;22.878;2022-12-18T10:55:51;102615.84;;;7.51;51.23
6567;BME280;3317;43.994;22.878;2022-12-18T10:58:25;102607.09;;;7.47;51.43
6567;BME280;3317;43.994;22.878;2022-12-18T11:01:07;102620.03;;;7.56;50.48
6567;BME280;3317;43.994;22.878;2022-12-18T11:03:36;102616.28;;;7.59;50.36
6567;BME280;3317;43.994;22.878;2022-12-18T11:06:06;102616.03;;;7.64;50.29
6567;BME280;3317;43.994;22.878;2022-12-18T11:08:33;102625.69;;;7.68;50.91
6567;BME280;3317;43.994;22.878;2022-12-18T11:11:02;102623.50;;;7.74;50.39
6567;BME280;3317;43.994;22.878;2022-12-18T11:13:31;102623.16;;;7.81;51.13
6567;BME280;3317;43.994;22.878;2022-12-18T11:15:58;102622.78;;;7.87;50.84
6567;BME280;3317;43.994;22.878;2022-12-18T11:18:28;102623.41;;;7.92;50.38
6567;BME280;3317;43.994;22.878;2022-12-18T11:20:56;102624.69;;;8.01;50.12
6567;BME280;3317;43.994;22.878;2022-12-18T11:23:26;102619.88;;;8.06;49.78
6567;BME280;3317;43.994;22.878;2022-12-18T11:25:55;102617.94;;;8.08;49.12
6567;BME280;3317;43.994;22.878;2022-12-18T11:28:34;102623.19;;;8.11;48.91
6567;BME280;3317;43.994;22.878;2022-12-18T11:31:22;102622.81;;;8.17;48.88
6567;BME280;3317;43.994;22.878;2022-12-18T11:33:57;102600.69;;;8.11;47.95
6567;BME280;3317;43.994;22.878;2022-12-18T11:36:29;102599.66;;;8.13;47.73
6567;BME280;3317;43.994;22.878;2022-12-18T11:39:00;102615.81;;;8.29;47.95
6567;BME280;3317;43.994;22.878;2022-12-18T11:41:33;102616.59;;;8.31;48.23
6567;BME280;3317;43.994;22.878;2022-12-18T11:44:25;102618.91;;;8.38;48.41
6567;BME280;3317;43.994;22.878;2022-12-18T11:46:56;102622.78;;;8.34;47.75
6567;BME280;3317;43.994;22.878;2022-12-18T11:49:30;102628.28;;;8.46;47.06
6567;BME280;3317;43.994;22.878;2022-12-18T11:52:03;102623.94;;;8.44;46.71
6567;BME280;3317;43.994;22.878;2022-12-18T11:54:31;102627.44;;;8.46;46.69
6567;BME280;3317;43.994;22.878;2022-12-18T11:57:03;102620.97;;;8.49;46.88
6567;BME280;3317;43.994;22.878;2022-12-18T11:59:40;102622.72;;;8.50;46.73
6567;BME280;3317;43.994;22.878;2022-12-18T12:05:24;102629.00;;;8.50;46.14
6567;BME280;3317;43.994;22.878;2022-12-18T12:07:58;102627.06;;;8.52;46.46
6567;BME280;3317;43.994;22.878;2022-12-18T12:10:41;102627.94;;;8.53;46.44
6567;BME280;3317;43.994;22.878;2022-12-18T12:13:25;102633.16;;;8.56;46.72
6567;BME280;3317;43.994;22.878;2022-12-18T12:16:05;102635.94;;;8.54;46.76
6567;BME280;3317;43.994;22.878;2022-12-18T12:18:45;102630.38;;;8.57;47.78
6567;BME280;3317;43.994;22.878;2022-12-18T12:21:20;102629.78;;;8.67;50.64
6567;BME280;3317;43.994;22.878;2022-12-18T12:23:57;102628.53;;;8.72;51.18
6567;BME280;3317;43.994;22.878;2022-12-18T12:26:32;102631.34;;;8.71;50.78
6567;BME280;3317;43.994;22.878;2022-12-18T12:29:07;102633.38;;;8.67;49.79
6567;BME280;3317;43.994;22.878;2022-12-18T12:31:54;102635.38;;;8.64;49.93
6567;BME280;3317;43.994;22.878;2022-12-18T12:34:29;102632.00;;;8.60;48.61
6567;BME280;3317;43.994;22.878;2022-12-18T12:37:06;102650.84;;;8.62;51.34
6567;BME280;3317;43.994;22.878;2022-12-18T12:39:40;102646.22;;;8.48;50.57
6567;BME280;3317;43.994;22.878;2022-12-18T12:42:14;102660.03;;;8.43;48.81
6567;BME280;3317;43.994;22.878;2022-12-18T12:45:01;102663.22;;;8.35;48.73
6567;BME280;3317;43.994;22.878;2022-12-18T12:47:36;102665.69;;;8.24;49.45
6567;BME280;3317;43.994;22.878;2022-12-18T12:50:13;102673.34;;;8.15;49.48
6567;BME280;3317;43.994;22.878;2022-12-18T12:52:43;102661.28;;;8.07;49.56
6567;BME280;3317;43.994;22.878;2022-12-18T12:55:14;102674.16;;;8.01;49.94
6567;BME280;3317;43.994;22.878;2022-12-18T12:57:46;102668.09;;;7.98;50.69
6567;BME280;3317;43.994;22.878;2022-12-18T13:00:16;102684.34;;;7.96;51.34
6567;BME280;3317;43.994;22.878;2022-12-18T13:02:50;102689.84;;;7.95;51.88
6567;BME280;3317;43.994;22.878;2022-12-18T13:05:23;102693.75;;;7.89;53.19
6567;BME280;3317;43.994;22.878;2022-12-18T13:07:54;102710.66;;;7.77;51.41
6567;BME280;3317;43.994;22.878;2022-12-18T13:10:26;102696.56;;;7.71;51.29
6567;BME280;3317;43.994;22.878;2022-12-18T13:12:56;102689.50;;;7.53;50.73
6567;BME280;3317;43.994;22.878;2022-12-18T13:15:24;102701.78;;;7.42;50.72
6567;BME280;3317;43.994;22.878;2022-12-18T13:18:13;102701.06;;;7.39;51.78
6567;BME280;3317;43.994;22.878;2022-12-18T13:20:43;102712.09;;;7.34;53.77
6567;BME280;3317;43.994;22.878;2022-12-18T13:23:35;102715.16;;;7.28;54.28
6567;BME280;3317;43.994;22.878;2022-12-18T13:26:30;102722.69;;;7.21;52.82
6567;BME280;3317;43.994;22.878;2022-12-18T13:28:59;102719.53;;;7.13;52.48
6567;BME280;3317;43.994;22.878;2022-12-18T13:34:37;102739.78;;;7.04;53.30